sensor_id;sensor_type;location;lat;lon;timestamp;P1;durP1;ratioP1;P2;durP2;ratioP2
10013;SDS011;45684;48.358;10.746;2023-02-15T00:02:02;15.87;;;11.03;;
10013;SDS011;45684;48.358;10.746;2023-02-15T00:04:31;12.47;;;9.83;;
10013;SDS011;45684;48.358;10.746;2023-02-15T00:07:14;15.30;;;10.10;;
10013;SDS011;45684;48.358;10.746;2023-02-15T00:09:44;30.00;;;11.40;;
10013;SDS011;45684;48.358;10.746;2023-02-15T00:12:12;23.27;;;11.30;;
10013;SDS011;45684;48.358;10.746;2023-02-15T00:14:41;31.47;;;10.50;;
10013;SDS011;45684;48.358;10.746;2023-02-15T00:17:09;42.63;;;12.27;;
10013;SDS011;45684;48.358;10.746;2023-02-15T00:19:38;12.20;;;10.07;;
10013;SDS011;45684;48.358;10.746;2023-02-15T00:22:07;17.23;;;10.73;;
10013;SDS011;45684;48.358;10.746;2023-02-15T00:24:35;14.63;;;10.87;;
10013;SDS011;45684;48.358;10.746;2023-02-15T00:27:02;26.80;;;12.23;;
10013;SDS011;45684;48.358;10.746;2023-02-15T00:29:30;12.67;;;10.47;;
10013;SDS011;45684;48.358;10.746;2023-02-15T00:31:58;43.13;;;11.57;;
10013;SDS011;45684;48.358;10.746;2023-02-15T00:34:28;13.23;;;10.03;;
10013;SDS011;45684;48.358;10.746;2023-02-15T00:36:57;15.03;;;10.87;;
10013;SDS011;45684;48.358;10.746;2023-02-15T00:39:25;13.50;;;10.73;;
10013;SDS011;45684;48.358;10.746;2023-02-15T00:41:53;13.20;;;9.83;;
10013;SDS011;45684;48.358;10.746;2023-02-15T00:44:21;13.20;;;10.60;;
10013;SDS011;45684;48.358;10.746;2023-02-15T00:46:48;12.50;;;9.47;;
10013;SDS011;45684;48.358;10.746;2023-02-15T00:49:16;13.77;;;10.60;;
10013;SDS011;45684;48.358;10.746;2023-02-15T00:51:44;14.53;;;10.80;;
10013;SDS011;45684;48.358;10.746;2023-02-15T00:54:13;16.03;;;11.00;;
10013;SDS011;45684;48.358;10.746;2023-02-15T00:56:41;12.90;;;9.70;;
10013;SDS011;45684;48.358;10.746;2023-02-15T00:59:09;17.97;;;11.73;;
10013;SDS011;45684;48.358;10.746;2023-02-15T01:01:36;11.80;;;10.63;;
10013;SDS011;45684;48.358;10.746;2023-02-15T01:04:04;14.07;;;10.20;;
10013;SDS011;45684;48.358;10.746;2023-02-15T01:06:32;12.77;;;10.30;;
10013;SDS011;45684;48.358;10.746;2023-02-15T01:09:00;12.43;;;9.57;;
10013;SDS011;45684;48.358;10.746;2023-02-15T01:11:30;15.80;;;10.40;;
10013;SDS011;45684;48.358;10.746;2023-02-15T01:13:58;12.53;;;9.83;;
10013;SDS011;45684;48.358;10.746;2023-02-15T01:16:27;13.77;;;10.50;;
10013;SDS011;45684;48.358;10.746;2023-02-15T01:18:55;11.57;;;9.80;;
10013;SDS011;45684;48.358;10.746;2023-02-15T01:21:24;11.17;;;9.70;;
10013;SDS011;45684;48.358;10.746;2023-02-15T01:23:53;17.03;;;9.50;;
10013;SDS011;45684;48.358;10.746;2023-02-15T01:26:20;11.43;;;9.60;;
10013;SDS011;45684;48.358;10.746;2023-02-15T01:28:50;11.77;;;9.03;;
10013;SDS011;45684;48.358;10.746;2023-02-15T01:31:18;16.43;;;9.57;;
10013;SDS011;45684;48.358;10.746;2023-02-15T01:33:47;11.50;;;8.60;;
10013;SDS011;45684;48.358;10.746;2023-02-15T01:36:16;23.93;;;9.80;;
10013;SDS011;45684;48.358;10.746;2023-02-15T01:38:44;18.07;;;9.57;;
10013;SDS011;45684;48.358;10.746;2023-02-15T01:41:12;15.63;;;9.63;;
10013;SDS011;45684;48.358;10.746;2023-02-15T01:43:55;12.23;;;9.70;;
10013;SDS011;45684;48.358;10.746;2023-02-15T01:46:26;11.27;;;9.47;;
10013;SDS011;45684;48.358;10.746;2023-02-15T01:49:00;10.27;;;9.10;;
10013;SDS011;45684;48.358;10.746;2023-02-15T01:51:34;20.13;;;10.43;;
10013;SDS011;45684;48.358;10.746;2023-02-15T01:54:06;14.63;;;10.73;;
10013;SDS011;45684;48.358;10.746;2023-02-15T01:56:37;16.47;;;10.37;;
10013;SDS011;45684;48.358;10.746;2023-02-15T01:59:10;14.27;;;9.17;;
10013;SDS011;45684;48.358;10.746;2023-02-15T02:01:42;12.83;;;9.90;;
10013;SDS011;45684;48.358;10.746;2023-02-15T02:04:12;21.23;;;10.43;;
10013;SDS011;45684;48.358;10.746;2023-02-15T02:06:44;12.10;;;9.60;;
10013;SDS011;45684;48.358;10.746;2023-02-15T02:09:13;18.63;;;9.53;;
10013;SDS011;45684;48.358;10.746;2023-02-15T02:11:41;35.43;;;10.33;;
10013;SDS011;45684;48.358;10.746;2023-02-15T02:14:14;15.83;;;9.70;;
10013;SDS011;45684;48.358;10.746;2023-02-15T02:16:44;14.10;;;9.33;;
10013;SDS011;45684;48.358;10.746;2023-02-15T02:19:34;32.90;;;10.67;;
10013;SDS011;45684;48.358;10.746;2023-02-15T02:25:31;67.10;;;10.83;;
10013;SDS011;45684;48.358;10.746;2023-02-15T02:34:48;24.00;;;10.33;;
10013;SDS011;45684;48.358;10.746;2023-02-15T02:37:23;14.20;;;9.83;;
10013;SDS011;45684;48.358;10.746;2023-02-15T02:39:59;32.30;;;10.27;;
10013;SDS011;45684;48.358;10.746;2023-02-15T02:42:35;30.10;;;10.67;;
10013;SDS011;45684;48.358;10.746;2023-02-15T02:45:07;25.07;;;9.93;;
10013;SDS011;45684;48.358;10.746;2023-02-15T02:47:42;17.10;;;9.60;;
10013;SDS011;45684;48.358;10.746;2023-02-15T02:50:16;64.90;;;11.63;;
10013;SDS011;45684;48.358;10.746;2023-02-15T02:52:46;34.57;;;9.80;;
10013;SDS011;45684;48.358;10.746;2023-02-15T02:55:15;51.60;;;11.17;;
10013;SDS011;45684;48.358;10.746;2023-02-15T02:57:51;18.27;;;9.63;;
10013;SDS011;45684;48.358;10.746;2023-02-15T03:00:22;13.20;;;9.93;;
10013;SDS011;45684;48.358;10.746;2023-02-15T03:02:54;12.83;;;9.30;;
10013;SDS011;45684;48.358;10.746;2023-02-15T03:05:32;14.07;;;9.50;;
10013;SDS011;45684;48.358;10.746;2023-02-15T03:08:05;27.10;;;10.30;;
10013;SDS011;45684;48.358;10.746;2023-02-15T03:10:36;26.03;;;10.13;;
10013;SDS011;45684;48.358;10.746;2023-02-15T03:13:06;13.90;;;9.67;;
10013;SDS011;45684;48.358;10.746;2023-02-15T03:15:36;63.20;;;11.13;;
10013;SDS011;45684;48.358;10.746;2023-02-15T03:18:25;13.43;;;9.07;;
10013;SDS011;45684;48.358;10.746;2023-02-15T03:20:59;35.27;;;10.80;;
10013;SDS011;45684;48.358;10.746;2023-02-15T03:23:29;74.30;;;11.23;;
10013;SDS011;45684;48.358;10.746;2023-02-15T03:26:00;18.83;;;9.73;;
10013;SDS011;45684;48.358;10.746;2023-02-15T03:28:33;23.83;;;10.40;;
10013;SDS011;45684;48.358;10.746;2023-02-15T03:31:04;11.47;;;9.00;;
10013;SDS011;45684;48.358;10.746;2023-02-15T03:33:33;11.03;;;9.30;;
10013;SDS011;45684;48.358;10.746;2023-02-15T03:36:08;39.57;;;11.40;;
10013;SDS011;45684;48.358;10.746;2023-02-15T03:38:47;32.53;;;10.90;;
10013;SDS011;45684;48.358;10.746;2023-02-15T03:41:19;17.57;;;9.53;;
10013;SDS011;45684;48.358;10.746;2023-02-15T03:43:54;104.20;;;12.23;;
10013;SDS011;45684;48.358;10.746;2023-02-15T03:46:26;16.77;;;10.33;;
10013;SDS011;45684;48.358;10.746;2023-02-15T03:49:01;38.90;;;12.57;;
10013;SDS011;45684;48.358;10.746;2023-02-15T03:51:35;49.80;;;14.47;;
10013;SDS011;45684;48.358;10.746;2023-02-15T03:54:07;64.17;;;13.40;;
10013;SDS011;45684;48.358;10.746;2023-02-15T03:56:38;37.77;;;14.03;;
10013;SDS011;45684;48.358;10.746;2023-02-15T03:59:07;12.77;;;10.63;;
10013;SDS011;45684;48.358;10.746;2023-02-15T04:01:55;41.73;;;11.57;;
10013;SDS011;45684;48.358;10.746;2023-02-15T04:04:33;28.90;;;11.73;;
10013;SDS011;45684;48.358;10.746;2023-02-15T04:07:05;12.70;;;10.33;;
10013;SDS011;45684;48.358;10.746;2023-02-15T04:09:34;29.87;;;11.17;;
10013;SDS011;45684;48.358;10.746;2023-02-15T04:12:20;17.77;;;11.60;;
10013;SDS011;45684;48.358;10.746;2023-02-15T04:14:47;29.50;;;11.50;;
10013;SDS011;45684;48.358;10.746;2023-02-15T04:17:33;28.37;;;11.87;;
10013;SDS011;45684;48.358;10.746;2023-02-15T04:20:01;16.27;;;11.30;;
10013;SDS011;45684;48.358;10.746;2023-02-15T04:22:47;14.63;;;11.30;;
10013;SDS011;45684;48.358;10.746;2023-02-15T04:25:32;14.77;;;11.00;;
10013;SDS011;45684;48.358;10.746;2023-02-15T04:28:00;16.13;;;10.97;;
10013;SDS011;45684;48.358;10.746;2023-02-15T04:30:27;16.60;;;11.97;;
10013;SDS011;45684;48.358;10.746;2023-02-15T04:32:55;16.47;;;11.47;;
10013;SDS011;45684;48.358;10.746;2023-02-15T04:35:23;47.00;;;12.53;;
10013;SDS011;45684;48.358;10.746;2023-02-15T04:37:53;56.53;;;13.27;;
10013;SDS011;45684;48.358;10.746;2023-02-15T04:40:22;18.87;;;10.97;;
10013;SDS011;45684;48.358;10.746;2023-02-15T04:42:49;14.83;;;10.53;;
10013;SDS011;45684;48.358;10.746;2023-02-15T04:45:17;18.00;;;11.40;;
10013;SDS011;45684;48.358;10.746;2023-02-15T04:47:45;31.00;;;12.07;;
10013;SDS011;45684;48.358;10.746;2023-02-15T04:50:13;16.23;;;11.70;;
10013;SDS011;45684;48.358;10.746;2023-02-15T04:52:40;18.37;;;12.33;;
10013;SDS011;45684;48.358;10.746;2023-02-15T04:55:09;24.10;;;12.33;;
10013;SDS011;45684;48.358;10.746;2023-02-15T04:57:37;50.83;;;12.67;;
10013;SDS011;45684;48.358;10.746;2023-02-15T05:00:05;18.77;;;12.20;;
10013;SDS011;45684;48.358;10.746;2023-02-15T05:02:35;39.40;;;14.07;;
10013;SDS011;45684;48.358;10.746;2023-02-15T05:05:03;29.27;;;13.00;;
10013;SDS011;45684;48.358;10.746;2023-02-15T05:07:31;20.20;;;14.07;;
10013;SDS011;45684;48.358;10.746;2023-02-15T05:09:58;76.13;;;16.43;;
10013;SDS011;45684;48.358;10.746;2023-02-15T05:12:28;29.17;;;13.13;;
10013;SDS011;45684;48.358;10.746;2023-02-15T05:14:55;62.70;;;14.53;;
10013;SDS011;45684;48.358;10.746;2023-02-15T05:17:23;15.03;;;10.70;;
10013;SDS011;45684;48.358;10.746;2023-02-15T05:19:51;66.77;;;14.47;;
10013;SDS011;45684;48.358;10.746;2023-02-15T05:22:18;28.83;;;13.40;;
10013;SDS011;45684;48.358;10.746;2023-02-15T05:24:46;36.03;;;17.17;;
10013;SDS011;45684;48.358;10.746;2023-02-15T05:27:33;22.70;;;15.07;;
10013;SDS011;45684;48.358;10.746;2023-02-15T05:30:18;25.67;;;15.50;;
10013;SDS011;45684;48.358;10.746;2023-02-15T05:32:45;36.87;;;14.43;;
10013;SDS011;45684;48.358;10.746;2023-02-15T05:35:14;29.13;;;13.53;;
10013;SDS011;45684;48.358;10.746;2023-02-15T05:37:42;33.57;;;18.20;;
10013;SDS011;45684;48.358;10.746;2023-02-15T05:40:10;38.77;;;13.60;;
10013;SDS011;45684;48.358;10.746;2023-02-15T05:42:40;20.13;;;12.67;;
10013;SDS011;45684;48.358;10.746;2023-02-15T05:45:07;37.50;;;14.37;;
10013;SDS011;45684;48.358;10.746;2023-02-15T05:47:35;25.70;;;13.77;;
10013;SDS011;45684;48.358;10.746;2023-02-15T05:50:04;27.10;;;13.33;;
10013;SDS011;45684;48.358;10.746;2023-02-15T05:52:32;35.97;;;13.80;;
10013;SDS011;45684;48.358;10.746;2023-02-15T05:55:00;28.60;;;13.20;;
10013;SDS011;45684;48.358;10.746;2023-02-15T05:57:28;51.77;;;18.03;;
10013;SDS011;45684;48.358;10.746;2023-02-15T05:59:57;64.67;;;14.70;;
10013;SDS011;45684;48.358;10.746;2023-02-15T06:02:25;32.63;;;15.37;;
10013;SDS011;45684;48.358;10.746;2023-02-15T06:04:53;27.83;;;15.63;;
10013;SDS011;45684;48.358;10.746;2023-02-15T06:07:21;54.63;;;15.00;;
10013;SDS011;45684;48.358;10.746;2023-02-15T06:09:48;28.47;;;13.70;;
10013;SDS011;45684;48.358;10.746;2023-02-15T06:12:16;15.73;;;11.90;;
10013;SDS011;45684;48.358;10.746;2023-02-15T06:14:44;25.20;;;12.97;;
10013;SDS011;45684;48.358;10.746;2023-02-15T06:17:13;18.57;;;12.33;;
10013;SDS011;45684;48.358;10.746;2023-02-15T06:19:43;27.87;;;13.13;;
10013;SDS011;45684;48.358;10.746;2023-02-15T06:22:10;19.47;;;13.30;;
10013;SDS011;45684;48.358;10.746;2023-02-15T06:24:40;17.00;;;12.40;;
10013;SDS011;45684;48.358;10.746;2023-02-15T06:27:08;18.47;;;11.90;;
10013;SDS011;45684;48.358;10.746;2023-02-15T06:29:37;28.00;;;13.33;;
10013;SDS011;45684;48.358;10.746;2023-02-15T06:32:04;51.23;;;13.90;;
10013;SDS011;45684;48.358;10.746;2023-02-15T06:34:34;17.40;;;12.30;;
10013;SDS011;45684;48.358;10.746;2023-02-15T06:37:02;16.27;;;12.43;;
10013;SDS011;45684;48.358;10.746;2023-02-15T06:39:29;26.73;;;12.80;;
10013;SDS011;45684;48.358;10.746;2023-02-15T06:41:57;19.07;;;12.33;;
10013;SDS011;45684;48.358;10.746;2023-02-15T06:44:25;17.80;;;12.40;;
10013;SDS011;45684;48.358;10.746;2023-02-15T06:46:53;24.37;;;13.00;;
10013;SDS011;45684;48.358;10.746;2023-02-15T06:49:20;37.80;;;13.37;;
10013;SDS011;45684;48.358;10.746;2023-02-15T06:51:49;16.70;;;12.33;;
10013;SDS011;45684;48.358;10.746;2023-02-15T06:54:17;16.17;;;12.40;;
10013;SDS011;45684;48.358;10.746;2023-02-15T06:56:45;17.13;;;14.77;;
10013;SDS011;45684;48.358;10.746;2023-02-15T06:59:13;55.97;;;17.93;;
10013;SDS011;45684;48.358;10.746;2023-02-15T07:01:41;19.43;;;15.20;;
10013;SDS011;45684;48.358;10.746;2023-02-15T07:04:09;17.73;;;12.87;;
10013;SDS011;45684;48.358;10.746;2023-02-15T07:06:36;56.87;;;13.80;;
10013;SDS011;45684;48.358;10.746;2023-02-15T07:09:05;25.57;;;13.20;;
10013;SDS011;45684;48.358;10.746;2023-02-15T07:11:33;22.93;;;14.47;;
10013;SDS011;45684;48.358;10.746;2023-02-15T07:14:19;54.17;;;30.63;;
10013;SDS011;45684;48.358;10.746;2023-02-15T07:16:47;66.53;;;27.73;;
10013;SDS011;45684;48.358;10.746;2023-02-15T07:19:15;21.17;;;15.37;;
10013;SDS011;45684;48.358;10.746;2023-02-15T07:21:42;21.80;;;14.93;;
10013;SDS011;45684;48.358;10.746;2023-02-15T07:24:13;41.70;;;13.03;;
10013;SDS011;45684;48.358;10.746;2023-02-15T07:26:41;26.67;;;13.07;;
10013;SDS011;45684;48.358;10.746;2023-02-15T07:29:09;36.77;;;16.00;;
10013;SDS011;45684;48.358;10.746;2023-02-15T07:31:36;24.00;;;13.67;;
10013;SDS011;45684;48.358;10.746;2023-02-15T07:34:05;22.63;;;12.23;;
10013;SDS011;45684;48.358;10.746;2023-02-15T07:36:33;21.53;;;12.83;;
10013;SDS011;45684;48.358;10.746;2023-02-15T07:39:01;14.97;;;11.70;;
10013;SDS011;45684;48.358;10.746;2023-02-15T07:41:30;23.93;;;12.17;;
10013;SDS011;45684;48.358;10.746;2023-02-15T07:43:57;19.17;;;13.10;;
10013;SDS011;45684;48.358;10.746;2023-02-15T07:46:25;15.63;;;13.33;;
10013;SDS011;45684;48.358;10.746;2023-02-15T07:48:54;20.27;;;13.83;;
10013;SDS011;45684;48.358;10.746;2023-02-15T07:51:21;23.50;;;13.03;;
10013;SDS011;45684;48.358;10.746;2023-02-15T07:53:49;30.10;;;12.37;;
10013;SDS011;45684;48.358;10.746;2023-02-15T07:56:17;17.77;;;12.40;;
10013;SDS011;45684;48.358;10.746;2023-02-15T07:58:47;28.47;;;13.87;;
10013;SDS011;45684;48.358;10.746;2023-02-15T08:01:22;25.27;;;12.83;;
10013;SDS011;45684;48.358;10.746;2023-02-15T08:03:53;26.10;;;13.10;;
10013;SDS011;45684;48.358;10.746;2023-02-15T08:06:23;18.63;;;13.60;;
10013;SDS011;45684;48.358;10.746;2023-02-15T08:08:52;21.50;;;13.23;;
10013;SDS011;45684;48.358;10.746;2023-02-15T08:11:20;17.20;;;13.23;;
10013;SDS011;45684;48.358;10.746;2023-02-15T08:13:54;15.37;;;12.30;;
10013;SDS011;45684;48.358;10.746;2023-02-15T08:16:26;24.73;;;12.70;;
10013;SDS011;45684;48.358;10.746;2023-02-15T08:18:56;21.33;;;12.63;;
10013;SDS011;45684;48.358;10.746;2023-02-15T08:21:25;17.67;;;12.80;;
10013;SDS011;45684;48.358;10.746;2023-02-15T08:23:54;25.43;;;13.10;;
10013;SDS011;45684;48.358;10.746;2023-02-15T08:26:23;20.13;;;13.67;;
10013;SDS011;45684;48.358;10.746;2023-02-15T08:28:52;16.30;;;12.97;;
10013;SDS011;45684;48.358;10.746;2023-02-15T08:31:21;19.53;;;12.47;;
10013;SDS011;45684;48.358;10.746;2023-02-15T08:33:50;21.27;;;12.73;;
10013;SDS011;45684;48.358;10.746;2023-02-15T08:36:20;20.63;;;12.43;;
10013;SDS011;45684;48.358;10.746;2023-02-15T08:38:49;16.47;;;12.40;;
10013;SDS011;45684;48.358;10.746;2023-02-15T08:41:17;17.27;;;12.53;;
10013;SDS011;45684;48.358;10.746;2023-02-15T08:43:47;17.47;;;13.70;;
10013;SDS011;45684;48.358;10.746;2023-02-15T08:46:19;16.83;;;12.80;;
10013;SDS011;45684;48.358;10.746;2023-02-15T08:48:48;27.63;;;12.53;;
10013;SDS011;45684;48.358;10.746;2023-02-15T08:51:17;15.50;;;12.47;;
10013;SDS011;45684;48.358;10.746;2023-02-15T08:53:47;23.77;;;11.60;;
10013;SDS011;45684;48.358;10.746;2023-02-15T08:56:16;18.17;;;13.30;;
10013;SDS011;45684;48.358;10.746;2023-02-15T08:58:45;27.33;;;12.57;;
10013;SDS011;45684;48.358;10.746;2023-02-15T09:01:13;15.53;;;11.50;;
10013;SDS011;45684;48.358;10.746;2023-02-15T09:03:46;19.73;;;11.83;;
10013;SDS011;45684;48.358;10.746;2023-02-15T09:06:15;13.10;;;11.43;;
10013;SDS011;45684;48.358;10.746;2023-02-15T09:08:43;15.60;;;11.50;;
10013;SDS011;45684;48.358;10.746;2023-02-15T09:11:12;14.90;;;11.27;;
10013;SDS011;45684;48.358;10.746;2023-02-15T09:13:42;12.50;;;11.13;;
10013;SDS011;45684;48.358;10.746;2023-02-15T09:16:11;12.63;;;10.93;;
10013;SDS011;45684;48.358;10.746;2023-02-15T09:18:39;13.73;;;11.40;;
10013;SDS011;45684;48.358;10.746;2023-02-15T09:21:09;15.87;;;11.57;;
10013;SDS011;45684;48.358;10.746;2023-02-15T09:23:39;12.30;;;10.73;;
10013;SDS011;45684;48.358;10.746;2023-02-15T09:26:08;12.23;;;10.57;;
10013;SDS011;45684;48.358;10.746;2023-02-15T09:28:38;12.97;;;9.97;;
10013;SDS011;45684;48.358;10.746;2023-02-15T09:31:07;12.80;;;10.40;;
10013;SDS011;45684;48.358;10.746;2023-02-15T09:33:37;12.37;;;10.03;;
10013;SDS011;45684;48.358;10.746;2023-02-15T09:36:15;12.73;;;10.47;;
10013;SDS011;45684;48.358;10.746;2023-02-15T09:38:44;13.93;;;10.97;;
10013;SDS011;45684;48.358;10.746;2023-02-15T09:41:16;11.90;;;10.50;;
10013;SDS011;45684;48.358;10.746;2023-02-15T09:43:59;14.47;;;10.77;;
10013;SDS011;45684;48.358;10.746;2023-02-15T09:46:41;12.23;;;9.33;;
10013;SDS011;45684;48.358;10.746;2023-02-15T09:49:21;10.47;;;9.27;;
10013;SDS011;45684;48.358;10.746;2023-02-15T09:52:12;11.00;;;9.93;;
10013;SDS011;45684;48.358;10.746;2023-02-15T09:55:06;12.83;;;9.80;;
10013;SDS011;45684;48.358;10.746;2023-02-15T09:57:50;13.80;;;10.00;;
10013;SDS011;45684;48.358;10.746;2023-02-15T10:00:27;12.07;;;10.40;;
10013;SDS011;45684;48.358;10.746;2023-02-15T10:03:16;11.63;;;10.43;;
10013;SDS011;45684;48.358;10.746;2023-02-15T10:06:03;11.90;;;10.23;;
10013;SDS011;45684;48.358;10.746;2023-02-15T10:08:49;12.10;;;10.20;;
10013;SDS011;45684;48.358;10.746;2023-02-15T10:11:26;11.53;;;10.00;;
10013;SDS011;45684;48.358;10.746;2023-02-15T10:14:16;12.77;;;11.23;;
10013;SDS011;45684;48.358;10.746;2023-02-15T10:16:56;12.33;;;11.03;;
10013;SDS011;45684;48.358;10.746;2023-02-15T10:19:33;11.60;;;10.40;;
10013;SDS011;45684;48.358;10.746;2023-02-15T10:22:16;11.37;;;10.17;;
10013;SDS011;45684;48.358;10.746;2023-02-15T10:24:58;11.73;;;10.53;;
10013;SDS011;45684;48.358;10.746;2023-02-15T10:27:39;11.20;;;10.10;;
10013;SDS011;45684;48.358;10.746;2023-02-15T10:30:13;12.37;;;11.17;;
10013;SDS011;45684;48.358;10.746;2023-02-15T10:32:44;11.63;;;10.50;;
10013;SDS011;45684;48.358;10.746;2023-02-15T10:35:23;11.47;;;10.27;;
10013;SDS011;45684;48.358;10.746;2023-02-15T10:38:03;11.97;;;10.77;;
10013;SDS011;45684;48.358;10.746;2023-02-15T10:40:40;11.07;;;9.97;;
10013;SDS011;45684;48.358;10.746;2023-02-15T10:43:27;11.93;;;10.73;;
10013;SDS011;45684;48.358;10.746;2023-02-15T10:46:11;12.13;;;10.83;;
10013;SDS011;45684;48.358;10.746;2023-02-15T10:49:01;11.20;;;10.10;;
10013;SDS011;45684;48.358;10.746;2023-02-15T10:51:40;11.80;;;10.53;;
10013;SDS011;45684;48.358;10.746;2023-02-15T10:54:21;12.10;;;10.90;;
10013;SDS011;45684;48.358;10.746;2023-02-15T10:57:02;12.30;;;11.03;;
10013;SDS011;45684;48.358;10.746;2023-02-15T10:59:40;12.33;;;11.03;;
10013;SDS011;45684;48.358;10.746;2023-02-15T11:02:20;11.90;;;10.70;;
10013;SDS011;45684;48.358;10.746;2023-02-15T11:05:02;12.93;;;10.73;;
10013;SDS011;45684;48.358;10.746;2023-02-15T11:07:43;11.77;;;10.57;;
10013;SDS011;45684;48.358;10.746;2023-02-15T11:10:21;11.63;;;10.37;;
10013;SDS011;45684;48.358;10.746;2023-02-15T11:12:55;11.30;;;10.13;;
10013;SDS011;45684;48.358;10.746;2023-02-15T11:15:25;10.93;;;9.90;;
10013;SDS011;45684;48.358;10.746;2023-02-15T11:18:02;11.10;;;10.00;;
10013;SDS011;45684;48.358;10.746;2023-02-15T11:20:38;12.13;;;10.83;;
10013;SDS011;45684;48.358;10.746;2023-02-15T11:23:13;12.33;;;10.97;;
10013;SDS011;45684;48.358;10.746;2023-02-15T11:25:45;11.83;;;10.17;;
10013;SDS011;45684;48.358;10.746;2023-02-15T11:28:22;10.60;;;9.50;;
10013;SDS011;45684;48.358;10.746;2023-02-15T11:30:55;11.97;;;10.17;;
10013;SDS011;45684;48.358;10.746;2023-02-15T11:33:27;11.13;;;9.83;;
10013;SDS011;45684;48.358;10.746;2023-02-15T11:35:59;10.10;;;9.10;;
10013;SDS011;45684;48.358;10.746;2023-02-15T11:38:31;11.00;;;9.90;;
10013;SDS011;45684;48.358;10.746;2023-02-15T11:41:01;10.77;;;9.67;;
10013;SDS011;45684;48.358;10.746;2023-02-15T11:43:34;11.00;;;9.90;;
10013;SDS011;45684;48.358;10.746;2023-02-15T11:46:07;12.00;;;10.80;;
10013;SDS011;45684;48.358;10.746;2023-02-15T11:48:38;10.90;;;9.80;;
10013;SDS011;45684;48.358;10.746;2023-02-15T11:51:08;11.50;;;10.37;;
10013;SDS011;45684;48.358;10.746;2023-02-15T11:53:40;10.73;;;9.67;;
10013;SDS011;45684;48.358;10.746;2023-02-15T11:56:12;10.60;;;9.60;;
10013;SDS011;45684;48.358;10.746;2023-02-15T11:58:43;10.43;;;9.43;;
10013;SDS011;45684;48.358;10.746;2023-02-15T12:01:16;11.37;;;10.27;;
10013;SDS011;45684;48.358;10.746;2023-02-15T12:03:52;10.93;;;9.83;;
10013;SDS011;45684;48.358;10.746;2023-02-15T12:06:24;11.20;;;10.10;;
10013;SDS011;45684;48.358;10.746;2023-02-15T12:08:55;11.50;;;10.23;;
10013;SDS011;45684;48.358;10.746;2023-02-15T12:11:31;12.23;;;10.37;;
10013;SDS011;45684;48.358;10.746;2023-02-15T12:14:05;10.97;;;9.93;;
10013;SDS011;45684;48.358;10.746;2023-02-15T12:16:39;11.07;;;9.97;;
10013;SDS011;45684;48.358;10.746;2023-02-15T12:19:21;12.70;;;10.70;;
10013;SDS011;45684;48.358;10.746;2023-02-15T12:21:57;11.33;;;9.67;;
10013;SDS011;45684;48.358;10.746;2023-02-15T12:24:27;11.50;;;10.33;;
10013;SDS011;45684;48.358;10.746;2023-02-15T12:27:01;11.47;;;10.27;;
10013;SDS011;45684;48.358;10.746;2023-02-15T12:29:34;12.63;;;11.33;;
10013;SDS011;45684;48.358;10.746;2023-02-15T12:32:08;11.40;;;10.30;;
10013;SDS011;45684;48.358;10.746;2023-02-15T12:34:44;12.40;;;11.10;;
10013;SDS011;45684;48.358;10.746;2023-02-15T12:37:17;11.50;;;10.50;;
10013;SDS011;45684;48.358;10.746;2023-02-15T12:39:53;11.67;;;10.57;;
10013;SDS011;45684;48.358;10.746;2023-02-15T12:42:23;11.83;;;10.30;;
10013;SDS011;45684;48.358;10.746;2023-02-15T12:44:54;12.33;;;11.07;;
10013;SDS011;45684;48.358;10.746;2023-02-15T12:47:25;11.77;;;10.63;;
10013;SDS011;45684;48.358;10.746;2023-02-15T12:50:08;11.47;;;10.37;;
10013;SDS011;45684;48.358;10.746;2023-02-15T12:52:44;11.83;;;10.63;;
10013;SDS011;45684;48.358;10.746;2023-02-15T12:55:18;12.37;;;11.07;;
10013;SDS011;45684;48.358;10.746;2023-02-15T12:57:49;11.57;;;10.33;;
10013;SDS011;45684;48.358;10.746;2023-02-15T13:00:33;11.07;;;9.73;;
10013;SDS011;45684;48.358;10.746;2023-02-15T13:03:01;12.33;;;11.03;;
10013;SDS011;45684;48.358;10.746;2023-02-15T13:05:33;13.83;;;12.43;;
10013;SDS011;45684;48.358;10.746;2023-02-15T13:08:08;13.23;;;11.93;;
10013;SDS011;45684;48.358;10.746;2023-02-15T13:10:39;12.73;;;11.03;;
10013;SDS011;45684;48.358;10.746;2023-02-15T13:13:10;13.13;;;11.37;;
10013;SDS011;45684;48.358;10.746;2023-02-15T13:15:49;12.20;;;11.00;;
10013;SDS011;45684;48.358;10.746;2023-02-15T13:18:21;12.30;;;11.10;;
10013;SDS011;45684;48.358;10.746;2023-02-15T13:20:56;13.20;;;11.83;;
10013;SDS011;45684;48.358;10.746;2023-02-15T13:23:27;12.57;;;11.37;;
10013;SDS011;45684;48.358;10.746;2023-02-15T13:25:57;12.77;;;11.40;;
10013;SDS011;45684;48.358;10.746;2023-02-15T13:28:30;13.13;;;11.83;;
10013;SDS011;45684;48.358;10.746;2023-02-15T13:31:07;12.40;;;11.30;;
10013;SDS011;45684;48.358;10.746;2023-02-15T13:33:42;13.37;;;12.03;;
10013;SDS011;45684;48.358;10.746;2023-02-15T13:36:14;13.57;;;12.17;;
10013;SDS011;45684;48.358;10.746;2023-02-15T13:41:51;13.77;;;12.00;;
10013;SDS011;45684;48.358;10.746;2023-02-15T13:44:27;12.93;;;11.50;;
10013;SDS011;45684;48.358;10.746;2023-02-15T13:47:20;13.57;;;12.17;;
10013;SDS011;45684;48.358;10.746;2023-02-15T13:50:02;14.00;;;12.60;;
10013;SDS011;45684;48.358;10.746;2023-02-15T13:52:46;13.40;;;11.80;;
10013;SDS011;45684;48.358;10.746;2023-02-15T13:55:31;13.47;;;12.07;;
10013;SDS011;45684;48.358;10.746;2023-02-15T13:58:18;13.73;;;12.03;;
10013;SDS011;45684;48.358;10.746;2023-02-15T14:01:00;14.77;;;12.23;;
10013;SDS011;45684;48.358;10.746;2023-02-15T14:03:57;12.37;;;11.17;;
10013;SDS011;45684;48.358;10.746;2023-02-15T14:09:40;13.17;;;11.87;;
10013;SDS011;45684;48.358;10.746;2023-02-15T14:12:27;13.53;;;12.13;;
10013;SDS011;45684;48.358;10.746;2023-02-15T14:15:09;13.63;;;12.23;;
10013;SDS011;45684;48.358;10.746;2023-02-15T14:17:48;13.77;;;12.37;;
10013;SDS011;45684;48.358;10.746;2023-02-15T14:20:26;13.40;;;12.00;;
10013;SDS011;45684;48.358;10.746;2023-02-15T14:23:04;14.10;;;12.60;;
10013;SDS011;45684;48.358;10.746;2023-02-15T14:25:47;12.97;;;11.67;;
10013;SDS011;45684;48.358;10.746;2023-02-15T14:28:19;14.47;;;12.20;;
10013;SDS011;45684;48.358;10.746;2023-02-15T14:30:56;15.57;;;12.07;;
10013;SDS011;45684;48.358;10.746;2023-02-15T14:33:28;13.57;;;12.17;;
10013;SDS011;45684;48.358;10.746;2023-02-15T14:36:03;13.83;;;12.53;;
10013;SDS011;45684;48.358;10.746;2023-02-15T14:38:39;14.07;;;12.53;;
10013;SDS011;45684;48.358;10.746;2023-02-15T14:41:15;13.77;;;12.37;;
10013;SDS011;45684;48.358;10.746;2023-02-15T14:43:51;14.87;;;13.13;;
10013;SDS011;45684;48.358;10.746;2023-02-15T14:46:29;14.30;;;12.90;;
10013;SDS011;45684;48.358;10.746;2023-02-15T14:49:03;14.50;;;13.00;;
10013;SDS011;45684;48.358;10.746;2023-02-15T14:54:52;14.83;;;13.33;;
10013;SDS011;45684;48.358;10.746;2023-02-15T14:57:28;15.13;;;13.17;;
10013;SDS011;45684;48.358;10.746;2023-02-15T15:00:03;16.30;;;13.33;;
10013;SDS011;45684;48.358;10.746;2023-02-15T15:02:58;15.57;;;13.70;;